createdAt,value
2019-04-21T00:01:37.675Z,33.10
2019-04-21T00:04:34.627Z,33.10
2019-04-21T00:07:28.095Z,33.10
2019-04-21T00:10:18.793Z,33.10
2019-04-21T00:13:03.750Z,33.00
2019-04-21T00:15:40.747Z,33.00
2019-04-21T00:18:50.587Z,33.00
2019-04-21T00:21:42.674Z,32.90
2019-04-21T00:24:37.451Z,32.80
2019-04-21T00:27:24.600Z,32.70
2019-04-21T00:30:15.687Z,32.70
2019-04-21T00:32:56.369Z,32.70
2019-04-21T00:35:42.175Z,32.60
2019-04-21T00:38:49.275Z,32.50
2019-04-21T00:41:29.451Z,32.60
2019-04-21T00:44:11.458Z,32.50
2019-04-21T00:47:03.087Z,32.50
2019-04-21T00:50:00.838Z,32.50
2019-04-21T00:52:58.105Z,32.50
2019-04-21T00:55:45.541Z,32.40
2019-04-21T00:58:33.155Z,32.50
2019-04-21T01:01:20.665Z,32.40
2019-04-21T01:04:14.291Z,32.30
2019-04-21T01:07:02.979Z,32.40
2019-04-21T01:09:37.517Z,32.30
2019-04-21T01:12:37.896Z,32.30
2019-04-21T01:15:30.635Z,32.40
2019-04-21T01:18:09.275Z,32.30
2019-04-21T01:20:37.342Z,32.30
2019-04-21T01:23:23.799Z,32.30
2019-04-21T01:26:25.302Z,32.20
2019-04-21T01:29:15.710Z,32.20
2019-04-21T01:32:19.416Z,32.10
2019-04-21T01:34:58.351Z,32.10
2019-04-21T01:37:52.450Z,32.00
2019-04-21T01:40:34.868Z,32.00
2019-04-21T01:43:23.457Z,31.90
2019-04-21T01:46:11.262Z,31.90
2019-04-21T01:48:53.119Z,31.90
2019-04-21T01:52:02.774Z,31.90
2019-04-21T01:54:57.633Z,31.80
2019-04-21T01:57:57.649Z,31.80
2019-04-21T02:00:51.971Z,31.80
2019-04-21T02:06:33.186Z,31.70
2019-04-21T02:09:20.184Z,31.60
2019-04-21T02:12:14.775Z,31.60
2019-04-21T02:15:06.298Z,31.60
2019-04-21T02:17:54.096Z,31.60
2019-04-21T02:20:29.401Z,31.50
2019-04-21T02:23:34.753Z,31.60
2019-04-21T02:26:16.060Z,31.50
2019-04-21T02:29:10.684Z,31.50
2019-04-21T02:32:01.618Z,31.40
2019-04-21T02:34:57.525Z,31.40
2019-04-21T02:43:18.662Z,31.30
2019-04-21T02:46:08.528Z,31.30
2019-04-21T02:49:04.015Z,31.30
2019-04-21T02:57:15.637Z,31.10
2019-04-21T03:03:14.029Z,31.00
2019-04-21T03:06:24.788Z,31.00
2019-04-21T03:09:09.191Z,31.00
2019-04-21T03:12:05.617Z,31.00
2019-04-21T03:14:56.425Z,31.50
2019-04-21T03:17:43.594Z,31.00
2019-04-21T03:20:23.446Z,30.90
2019-04-21T03:23:21.032Z,31.00
2019-04-21T03:26:07.315Z,30.90
2019-04-21T03:28:49.529Z,30.90
2019-04-21T03:32:06.229Z,30.90
2019-04-21T03:34:41.160Z,30.90
2019-04-21T03:37:06.970Z,30.80
2019-04-21T03:45:46.583Z,30.80
2019-04-21T03:48:26.760Z,30.70
2019-04-21T03:51:12.519Z,30.70
2019-04-21T03:53:55.777Z,30.70
2019-04-21T03:57:01.407Z,30.70
2019-04-21T03:59:24.562Z,30.60
2019-04-21T04:02:42.667Z,30.60
2019-04-21T04:05:24.309Z,30.60
2019-04-21T04:08:09.421Z,30.60
2019-04-21T04:11:05.083Z,30.50
2019-04-21T04:16:26.568Z,30.40
2019-04-21T04:19:18.624Z,30.50
2019-04-21T04:22:20.950Z,30.30
2019-04-21T04:24:57.988Z,30.20
2019-04-21T04:30:31.664Z,30.00
2019-04-21T04:33:23.931Z,29.90
2019-04-21T04:39:29.836Z,29.70
2019-04-21T04:42:12.753Z,29.60
2019-04-21T04:47:43.093Z,29.40
2019-04-21T04:50:33.828Z,29.40
2019-04-21T04:53:20.761Z,29.40
2019-04-21T04:56:05.782Z,29.50
2019-04-21T04:59:18.516Z,29.50
2019-04-21T05:02:08.720Z,29.40
2019-04-21T05:04:35.428Z,29.20
2019-04-21T05:10:09.826Z,28.80
2019-04-21T05:12:51.212Z,28.60
2019-04-21T05:15:38.313Z,28.40
2019-04-21T05:18:38.622Z,28.20
2019-04-21T05:21:24.481Z,28.50
2019-04-21T05:23:57.147Z,27.80
2019-04-21T05:26:44.832Z,27.70
2019-04-21T05:29:37.806Z,27.50
2019-04-21T05:32:40.282Z,27.40
2019-04-21T05:35:55.685Z,27.30
2019-04-21T05:39:07.194Z,27.20
2019-04-21T05:41:41.772Z,27.00
2019-04-21T05:44:52.763Z,27.00
2019-04-21T05:47:55.862Z,26.90
2019-04-21T05:50:34.960Z,26.80
2019-04-21T05:53:29.515Z,26.70
2019-04-21T05:56:17.329Z,26.70
2019-04-21T05:59:03.429Z,26.60
2019-04-21T06:02:02.128Z,26.50
2019-04-21T06:05:02.481Z,26.50
2019-04-21T06:07:28.993Z,26.40
2019-04-21T06:10:13.780Z,26.30
2019-04-21T06:13:05.815Z,26.30
2019-04-21T06:15:58.165Z,26.20
2019-04-21T06:21:28.094Z,26.10
2019-04-21T06:24:17.383Z,26.00
2019-04-21T06:29:55.678Z,26.30
2019-04-21T06:36:21.580Z,25.70
2019-04-21T06:39:11.384Z,25.70
2019-04-21T06:44:20.349Z,25.50
2019-04-21T06:47:26.620Z,25.70
2019-04-21T06:50:00.500Z,25.30
2019-04-21T06:55:41.930Z,25.20
2019-04-21T06:58:27.119Z,25.20
2019-04-21T07:01:15.520Z,25.10
2019-04-21T07:04:11.764Z,25.00
2019-04-21T07:09:36.320Z,25.00
2019-04-21T07:12:23.164Z,24.80
2019-04-21T07:15:13.315Z,24.70
2019-04-21T07:18:08.967Z,24.60
2019-04-21T07:20:53.181Z,24.50
2019-04-21T07:23:40.492Z,24.50
2019-04-21T07:26:25.575Z,24.40
2019-04-21T07:29:14.142Z,24.30
2019-04-21T07:32:05.074Z,24.30
2019-04-21T07:35:00.636Z,24.20
2019-04-21T07:37:35.299Z,24.10
2019-04-21T07:40:19.063Z,24.10
2019-04-21T07:43:09.046Z,24.10
2019-04-21T07:45:52.711Z,24.00
2019-04-21T07:48:51.175Z,24.10
2019-04-21T07:51:50.667Z,24.20
2019-04-21T07:54:55.030Z,24.20
2019-04-21T07:57:21.331Z,24.20
2019-04-21T08:00:21.026Z,24.20
2019-04-21T08:03:05.147Z,24.10
2019-04-21T08:05:52.569Z,24.10
2019-04-21T08:08:38.653Z,24.10
2019-04-21T08:11:19.435Z,24.10
2019-04-21T08:14:06.914Z,24.00
2019-04-21T08:17:06.020Z,24.00
2019-04-21T08:19:44.592Z,24.00
2019-04-21T08:22:43.184Z,24.00
2019-04-21T08:25:27.347Z,24.00
2019-04-21T08:28:13.860Z,24.00
2019-04-21T08:31:04.843Z,24.00
2019-04-21T08:33:56.087Z,24.00
2019-04-21T08:36:33.978Z,24.00
2019-04-21T08:39:35.651Z,24.00
2019-04-21T08:42:19.809Z,24.00
2019-04-21T08:45:10.780Z,24.10
2019-04-21T08:47:52.551Z,24.10
2019-04-21T08:50:36.292Z,24.10
2019-04-21T08:53:34.278Z,24.10
2019-04-21T08:56:41.661Z,24.10
2019-04-21T09:00:01.348Z,24.10
2019-04-21T09:03:11.181Z,24.30
2019-04-21T09:05:53.891Z,24.30
2019-04-21T09:08:44.492Z,24.20
2019-04-21T09:11:28.877Z,24.40
2019-04-21T09:14:21.206Z,24.50
2019-04-21T09:17:01.670Z,24.50
2019-04-21T09:20:13.926Z,24.60
2019-04-21T09:22:35.817Z,24.70
2019-04-21T09:25:38.352Z,24.80
2019-04-21T09:28:11.115Z,24.80
2019-04-21T09:30:52.515Z,24.90
2019-04-21T09:33:40.224Z,25.00
2019-04-21T09:36:25.469Z,25.10
2019-04-21T09:39:16.620Z,25.20
2019-04-21T09:42:02.783Z,25.20
2019-04-21T09:44:51.946Z,25.40
2019-04-21T09:47:46.002Z,25.40
2019-04-21T09:50:24.915Z,25.50
2019-04-21T09:53:22.204Z,25.60
2019-04-21T09:56:03.139Z,25.70
2019-04-21T09:58:51.682Z,25.70
2019-04-21T10:01:49.119Z,25.80
2019-04-21T10:04:23.245Z,25.80
2019-04-21T10:07:20.942Z,25.80
2019-04-21T10:09:58.205Z,25.80
2019-04-21T10:12:45.485Z,25.90
2019-04-21T10:15:33.133Z,26.00
2019-04-21T10:18:21.523Z,26.10
2019-04-21T10:21:09.607Z,26.20
2019-04-21T10:23:59.774Z,26.20
2019-04-21T10:26:47.174Z,26.30
2019-04-21T10:29:35.811Z,26.40
2019-04-21T10:32:25.179Z,26.50
2019-04-21T10:35:12.913Z,26.60
2019-04-21T10:38:12.877Z,26.70
2019-04-21T10:40:47.622Z,26.80
2019-04-21T10:43:35.480Z,26.80
2019-04-21T10:46:22.479Z,26.80
2019-04-21T10:49:08.687Z,26.90
2019-04-21T10:51:55.057Z,26.90
2019-04-21T10:55:03.347Z,27.00
2019-04-21T10:57:30.656Z,27.10
2019-04-21T11:00:17.649Z,27.20
2019-04-21T11:03:43.140Z,27.30
2019-04-21T11:06:30.867Z,27.40
2019-04-21T11:09:17.894Z,27.40
2019-04-21T11:12:04.124Z,27.60
2019-04-21T11:14:51.451Z,27.60
2019-04-21T11:17:40.620Z,27.70
2019-04-21T11:20:26.923Z,27.70
2019-04-21T11:23:14.166Z,27.70
2019-04-21T11:26:00.579Z,27.80
2019-04-21T11:28:48.972Z,27.80
2019-04-21T11:31:36.913Z,28.00
2019-04-21T11:34:23.574Z,28.00
2019-04-21T11:37:12.418Z,28.00
2019-04-21T11:40:06.859Z,28.10
2019-04-21T11:42:48.036Z,28.10
2019-04-21T11:45:37.395Z,28.20
2019-04-21T11:48:28.399Z,28.20
2019-04-21T11:51:15.204Z,28.30
2019-04-21T11:54:01.794Z,28.30
2019-04-21T11:56:49.071Z,28.40
2019-04-21T11:59:35.797Z,28.40
2019-04-21T12:02:22.011Z,28.50
2019-04-21T12:05:09.628Z,28.50
2019-04-21T12:07:58.381Z,28.60
2019-04-21T12:10:45.034Z,28.60
2019-04-21T12:13:32.188Z,28.60
2019-04-21T12:16:19.043Z,28.60
2019-04-21T12:19:07.073Z,28.60
2019-04-21T12:22:05.333Z,28.60
2019-04-21T12:24:41.313Z,28.60
2019-04-21T12:27:30.165Z,28.60
2019-04-21T12:30:17.634Z,28.60
2019-04-21T12:33:12.049Z,28.60
2019-04-21T12:35:59.898Z,28.60
2019-04-21T12:38:50.874Z,28.70
2019-04-21T12:41:34.225Z,28.70
2019-04-21T12:44:20.574Z,28.80
2019-04-21T12:47:07.921Z,28.80
2019-04-21T12:49:55.304Z,28.90
2019-04-21T12:52:41.999Z,28.90
2019-04-21T12:55:31.873Z,29.00
2019-04-21T12:58:17.563Z,29.00
2019-04-21T13:01:05.047Z,29.10
2019-04-21T13:03:52.114Z,29.10
2019-04-21T13:06:39.437Z,29.10
2019-04-21T13:09:27.531Z,29.00
2019-04-21T13:12:17.199Z,29.00
2019-04-21T13:15:04.358Z,29.00
2019-04-21T13:17:52.130Z,29.00
2019-04-21T13:20:39.901Z,29.00
2019-04-21T13:23:27.101Z,29.20
2019-04-21T13:26:13.395Z,29.20
2019-04-21T13:29:00.520Z,29.40
2019-04-21T13:31:48.074Z,29.30
2019-04-21T13:34:35.893Z,29.50
2019-04-21T13:37:23.540Z,29.70
2019-04-21T13:40:58.307Z,30.00
2019-04-21T13:43:29.357Z,30.00
2019-04-21T13:46:17.658Z,30.00
2019-04-21T13:49:05.775Z,30.60
2019-04-21T13:51:51.995Z,30.80
2019-04-21T13:54:39.770Z,31.10
2019-04-21T13:57:26.358Z,31.10
2019-04-21T14:00:13.295Z,31.20
2019-04-21T14:03:00.857Z,31.40
2019-04-21T14:05:48.512Z,31.60
2019-04-21T14:08:36.858Z,31.70
2019-04-21T14:11:23.407Z,32.60
2019-04-21T14:14:10.409Z,31.90
2019-04-21T14:16:56.487Z,31.80
2019-04-21T14:19:43.527Z,32.00
2019-04-21T14:22:29.664Z,32.20
2019-04-21T14:25:17.464Z,32.30
2019-04-21T14:28:04.061Z,32.40
2019-04-21T14:30:50.607Z,32.40
2019-04-21T14:33:38.149Z,32.70
2019-04-21T14:36:24.483Z,32.70
2019-04-21T14:39:12.420Z,32.80
2019-04-21T14:42:00.052Z,32.90
2019-04-21T14:44:46.945Z,32.90
2019-04-21T14:47:42.204Z,32.90
2019-04-21T14:50:48.361Z,33.00
2019-04-21T14:53:45.638Z,33.10
2019-04-21T14:56:31.748Z,33.10
2019-04-21T14:59:19.245Z,33.20
2019-04-21T15:02:05.590Z,33.20
2019-04-21T15:04:51.692Z,33.00
2019-04-21T15:07:39.215Z,32.70
2019-04-21T15:10:28.770Z,32.60
2019-04-21T15:13:14.059Z,32.60
2019-04-21T15:16:00.638Z,32.50
2019-04-21T15:18:46.973Z,32.40
2019-04-21T15:21:33.471Z,32.30
2019-04-21T15:24:20.467Z,32.20
2019-04-21T15:27:07.181Z,32.20
2019-04-21T15:29:53.266Z,32.20
2019-04-21T15:32:40.251Z,32.00
2019-04-21T15:35:27.099Z,32.00
2019-04-21T15:38:14.018Z,32.00
2019-04-21T15:41:04.429Z,32.00
2019-04-21T15:43:48.863Z,32.00
2019-04-21T15:46:35.352Z,31.80
2019-04-21T15:49:22.947Z,31.80
2019-04-21T15:52:11.742Z,31.70
2019-04-21T15:55:03.272Z,31.70
2019-04-21T15:58:18.719Z,31.70
2019-04-21T16:01:12.303Z,31.70
2019-04-21T16:04:00.508Z,31.70
2019-04-21T16:06:47.788Z,31.70
2019-04-21T16:09:37.413Z,31.60
2019-04-21T16:12:23.191Z,31.50
2019-04-21T16:15:14.827Z,31.50
2019-04-21T16:18:05.452Z,31.50
2019-04-21T16:20:51.747Z,31.50
2019-04-21T16:23:38.350Z,31.40
2019-04-21T16:26:24.666Z,31.30
2019-04-21T16:29:11.415Z,31.40
2019-04-21T16:31:59.520Z,31.30
2019-04-21T16:34:53.615Z,31.20
2019-04-21T16:37:35.343Z,31.00
2019-04-21T16:40:23.322Z,31.00
2019-04-21T16:43:10.138Z,30.80
2019-04-21T16:45:57.137Z,30.80
2019-04-21T16:48:44.165Z,30.70
2019-04-21T16:51:31.794Z,30.90
2019-04-21T16:54:22.501Z,30.80
2019-04-21T16:57:21.692Z,30.70
2019-04-21T17:00:20.179Z,30.70
2019-04-21T17:03:00.811Z,31.40
2019-04-21T17:05:48.387Z,30.60
2019-04-21T17:08:34.667Z,30.60
2019-04-21T17:11:27.178Z,30.60
2019-04-21T17:14:27.279Z,30.60
2019-04-21T17:17:17.807Z,30.60
2019-04-21T17:19:49.066Z,30.70
2019-04-21T17:22:33.630Z,30.70
2019-04-21T17:25:21.673Z,30.60
2019-04-21T17:28:08.019Z,30.70
2019-04-21T17:30:54.686Z,30.70
2019-04-21T17:33:41.447Z,30.60
2019-04-21T17:36:27.584Z,30.40
2019-04-21T17:39:13.999Z,30.40
2019-04-21T17:42:14.141Z,30.50
2019-04-21T17:44:48.675Z,30.40
2019-04-21T17:47:44.662Z,30.40
2019-04-21T17:50:43.609Z,30.50
2019-04-21T17:53:51.575Z,30.50
2019-04-21T17:57:01.753Z,27.20
2019-04-21T17:59:58.405Z,28.50
2019-04-21T18:02:38.541Z,29.20
2019-04-21T18:05:21.013Z,27.50
2019-04-21T18:08:11.064Z,26.00
2019-04-21T18:10:53.438Z,25.70
2019-04-21T18:13:26.968Z,25.60
2019-04-21T18:16:25.323Z,25.70
2019-04-21T18:19:04.627Z,25.80
2019-04-21T18:22:09.159Z,25.80
2019-04-21T18:25:05.698Z,25.90
2019-04-21T18:27:46.694Z,25.70
2019-04-21T18:30:46.813Z,25.90
2019-04-21T18:33:40.267Z,26.00
2019-04-21T18:36:34.886Z,26.10
2019-04-21T18:39:40.946Z,26.20
2019-04-21T18:42:38.728Z,26.30
2019-04-21T18:45:47.905Z,26.30
2019-04-21T18:48:39.853Z,26.40
2019-04-21T18:51:32.984Z,26.50
2019-04-21T18:54:37.744Z,26.50
2019-04-21T18:57:18.710Z,26.60
2019-04-21T18:59:53.428Z,26.70
2019-04-21T19:02:45.648Z,26.70
2019-04-21T19:05:29.632Z,27.00
2019-04-21T19:08:30.674Z,27.00
2019-04-21T19:11:24.044Z,26.90
2019-04-21T19:14:28.573Z,27.10
2019-04-21T19:17:29.166Z,27.30
2019-04-21T19:22:42.141Z,27.40
2019-04-21T19:25:25.451Z,27.60
2019-04-21T19:28:16.923Z,27.90
2019-04-21T19:31:10.991Z,28.10
2019-04-21T19:33:48.098Z,28.30
2019-04-21T19:36:25.643Z,28.40
2019-04-21T19:39:23.350Z,28.70
2019-04-21T19:42:12.702Z,28.90
2019-04-21T19:45:05.938Z,28.90
2019-04-21T19:47:56.712Z,29.10
2019-04-21T19:50:46.685Z,29.30
2019-04-21T19:53:31.352Z,29.50
2019-04-21T19:56:05.937Z,29.60
2019-04-21T19:58:52.970Z,30.80
2019-04-21T20:01:39.342Z,29.90
2019-04-21T20:04:34.419Z,30.00
2019-04-21T20:07:26.501Z,30.20
2019-04-21T20:10:27.201Z,30.10
2019-04-21T20:13:14.806Z,30.40
2019-04-21T20:16:03.875Z,30.60
2019-04-21T20:18:39.822Z,30.30
2019-04-21T20:21:20.763Z,30.50
2019-04-21T20:24:11.082Z,30.70
2019-04-21T20:27:02.232Z,31.00
2019-04-21T20:30:02.262Z,31.20
2019-04-21T20:32:52.224Z,31.40
2019-04-21T20:35:46.942Z,31.50
2019-04-21T20:38:21.911Z,31.70
2019-04-21T20:41:03.458Z,31.80
2019-04-21T20:44:01.041Z,32.00
2019-04-21T20:46:45.957Z,32.10
2019-04-21T20:49:31.691Z,32.10
2019-04-21T20:52:30.920Z,32.20
2019-04-21T20:55:05.481Z,32.30
2019-04-21T20:57:53.779Z,32.30
2019-04-21T21:01:03.001Z,32.30
2019-04-21T21:03:35.060Z,32.50
2019-04-21T21:06:21.890Z,33.10
2019-04-21T21:09:10.372Z,32.70
2019-04-21T21:12:11.368Z,32.60
2019-04-21T21:14:43.872Z,32.60
2019-04-21T21:20:29.478Z,32.60
2019-04-21T21:23:05.714Z,32.70
2019-04-21T21:26:01.911Z,33.00
2019-04-21T21:28:44.117Z,33.50
2019-04-21T21:31:37.307Z,33.80
2019-04-21T21:34:27.732Z,33.90
2019-04-21T21:37:21.664Z,34.10
2019-04-21T21:40:07.831Z,34.30
2019-04-21T21:42:37.605Z,34.40
2019-04-21T21:45:24.894Z,34.70
2019-04-21T21:48:26.398Z,34.90
2019-04-21T21:51:05.804Z,34.90
2019-04-21T21:53:45.859Z,34.90
2019-04-21T21:56:32.450Z,35.70
2019-04-21T21:59:22.809Z,35.10
2019-04-21T22:02:09.534Z,35.10
2019-04-21T22:05:06.634Z,35.00
2019-04-21T22:07:42.891Z,35.10
2019-04-21T22:10:32.117Z,35.30
2019-04-21T22:13:21.905Z,35.20
2019-04-21T22:16:10.592Z,35.20
2019-04-21T22:19:34.011Z,35.10
2019-04-21T22:21:57.804Z,35.00
2019-04-21T22:24:46.910Z,34.90
2019-04-21T22:27:19.017Z,34.90
2019-04-21T22:30:10.528Z,34.80
2019-04-21T22:33:00.704Z,34.70
2019-04-21T22:35:49.034Z,34.60
2019-04-21T22:38:43.399Z,34.50
2019-04-21T22:41:28.147Z,34.50
2019-04-21T22:44:07.048Z,34.40
2019-04-21T22:47:02.947Z,34.40
2019-04-21T22:49:41.052Z,34.40
2019-04-21T22:52:29.861Z,34.40
2019-04-21T22:55:20.823Z,34.30
2019-04-21T22:58:03.880Z,34.30
2019-04-21T23:00:56.175Z,34.20
2019-04-21T23:03:47.028Z,34.20
2019-04-21T23:06:32.297Z,34.20
2019-04-21T23:09:16.886Z,34.20
2019-04-21T23:12:04.915Z,34.20
2019-04-21T23:14:58.470Z,34.10
2019-04-21T23:18:00.155Z,34.00
2019-04-21T23:20:47.726Z,34.00
2019-04-21T23:23:35.816Z,34.00
2019-04-21T23:26:21.003Z,34.00
2019-04-21T23:29:15.512Z,33.90
2019-04-21T23:31:55.064Z,33.90
2019-04-21T23:34:34.055Z,33.90
2019-04-21T23:37:19.631Z,33.90
2019-04-21T23:40:10.275Z,33.80
2019-04-21T23:42:51.592Z,33.90
2019-04-21T23:45:41.851Z,33.90
2019-04-21T23:48:39.096Z,33.90
2019-04-21T23:51:27.527Z,33.90
2019-04-21T23:54:03.333Z,33.90
2019-04-21T23:56:49.603Z,33.80
2019-04-21T23:59:42.188Z,33.80
